Orr, MN

2:04 PM CST on February 19, 2017 (GMT -0600)
Orr Regional

Weather History for KORB - May, 2014

Change the Weather History Date:

Saturday, May 10, 2014

  Actual Average Record
Temperature  
Mean Temperature 50 °F -  
Max Temperature 71 °F 59 °F 77 °F (2007)
Min Temperature 30 °F 35 °F 24 °F (2013)
Degree Days  
Heating Degree Days 14    
Moisture  
Dew Point 29 °F    
Average Humidity 52    
Maximum Humidity 93    
Minimum Humidity 17    
Precipitation  
Precipitation 0.00 in - - ()
Sea Level Pressure  
Sea Level Pressure 29.77 in    
Wind  
Wind Speed 1 mph (SSE)    
Max Wind Speed 9 mph    
Max Gust Speed -    
Visibility 10 miles    
Events      
Averages and records for this station are not official NWS values.
T = Trace of Precipitation, MM = Missing Value Source: NWS Daily Summary

Daily Weather History Graph

Daily Weather History Graph

Search for Another Location

Airport or City:

Trip Planner

Search our weather history database for the weather conditions in past years. The results will help you decide how hot, cold, wet, or windy it might be!

Date:

Astronomy

May. 10, 2014 Rise Set
Actual Time 5:39 AM CDT 8:37 PM CDT
Civil Twilight 5:03 AM CDT 9:13 PM CDT
Nautical Twilight 4:16 AM CDT 10:00 PM CDT
Astronomical Twilight 3:20 AM CDT 10:57 PM CDT
Moon 4:15 PM CDT (5/10) 3:33 AM CDT (5/10)
Length of Visible Light 16h 10m
Length of Day
14h 57m
Waxing Gibbous, 82% of the Moon is Illuminated
May 10
Waxing Gibbous
May 14
Full
May 21
Last Quarter
May 28
New
Jun 5
First Quarter

Hourly Weather History & Observations

Time (CDT) Temp. Windchill Dew Point Humidity Pressure Visibility Wind Dir Wind Speed Gust Speed Precip Events Conditions
12:14 AM 35.6 °F - 33.8 °F 93% 29.68 in 10.0 mi Calm Calm - N/A   Clear
12:34 AM 35.6 °F - 33.8 °F 93% 29.69 in 10.0 mi Calm Calm - N/A   Clear
12:53 AM 37.4 °F - 35.6 °F 93% 29.69 in 10.0 mi Calm Calm - N/A   Clear
1:13 AM 35.6 °F - 33.8 °F 93% 29.69 in 10.0 mi Calm Calm - N/A   Clear
1:34 AM 37.4 °F - 35.6 °F 93% 29.69 in 10.0 mi Calm Calm - N/A   Clear
1:53 AM 35.6 °F 32.8 °F 33.8 °F 93% 29.69 in 10.0 mi West 3.5 mph - N/A   Clear
2:14 AM 33.8 °F - 30.2 °F 87% 29.69 in 10.0 mi Calm Calm - N/A   Clear
2:33 AM 33.8 °F - 32.0 °F 93% 29.69 in 10.0 mi Calm Calm - N/A   Clear
2:53 AM 33.8 °F - 30.2 °F 87% 29.70 in 10.0 mi Calm Calm - N/A   Clear
3:14 AM 32.0 °F - 30.2 °F 93% 29.71 in 10.0 mi Calm Calm - N/A   Clear
3:33 AM 32.0 °F - 30.2 °F 93% 29.71 in 10.0 mi Calm Calm - N/A   Clear
3:54 AM 30.2 °F - 28.4 °F 93% 29.72 in 10.0 mi Calm Calm - N/A   Clear
4:13 AM 30.2 °F - 28.4 °F 93% 29.73 in 10.0 mi Calm Calm - N/A   Clear
4:34 AM 30.2 °F - 28.4 °F 93% 29.72 in 10.0 mi Calm Calm - N/A   Clear
4:54 AM 30.2 °F - 28.4 °F 93% 29.73 in 10.0 mi Calm Calm - N/A   Clear
5:14 AM 30.2 °F - 28.4 °F 93% 29.73 in 10.0 mi Calm Calm - N/A   Clear
5:33 AM 30.2 °F - 28.4 °F 93% 29.74 in 10.0 mi Calm Calm - N/A   Clear
6:13 AM 30.2 °F - 28.4 °F 93% 29.77 in 10.0 mi Calm Calm - N/A   Clear
6:34 AM 32.0 °F - 30.2 °F 93% 29.77 in 10.0 mi Calm Calm - N/A   Clear
6:53 AM 33.8 °F - 30.2 °F 87% 29.78 in 10.0 mi Calm Calm - N/A   Clear
7:13 AM 35.6 °F - 32.0 °F 87% 29.79 in 10.0 mi Calm Calm - N/A   Clear
7:34 AM 35.6 °F - 32.0 °F 87% 29.79 in 10.0 mi Calm Calm - N/A   Clear
7:54 AM 39.2 °F - 33.8 °F 81% 29.80 in 10.0 mi Calm Calm - N/A   Clear
8:13 AM 41.0 °F - 35.6 °F 81% 29.80 in 10.0 mi Calm Calm - N/A   Clear
8:34 AM 42.8 °F - 35.6 °F 76% 29.81 in 10.0 mi Calm Calm - N/A   Clear
8:53 AM 46.4 °F - 35.6 °F 66% 29.81 in 10.0 mi Calm Calm - N/A   Clear
9:13 AM 48.2 °F - 35.6 °F 62% 29.81 in 10.0 mi Calm Calm - N/A   Clear
9:34 AM 50.0 °F - 35.6 °F 58% 29.81 in 10.0 mi Calm Calm - N/A   Clear
9:53 AM 51.8 °F - 35.6 °F 54% 29.81 in 10.0 mi Calm Calm - N/A   Clear
10:14 AM 53.6 °F - 37.4 °F 54% 29.81 in 10.0 mi Calm Calm - N/A   Clear
10:33 AM 55.4 °F - 37.4 °F 51% 29.81 in 10.0 mi Calm Calm - N/A   Clear
10:54 AM 57.2 °F - 35.6 °F 44% 29.81 in 10.0 mi Calm Calm - N/A   Clear
11:13 AM 57.2 °F - 30.2 °F 36% 29.81 in 10.0 mi Calm Calm - N/A   Clear
11:33 AM 60.8 °F - 32.0 °F 34% 29.81 in 10.0 mi SW 4.6 mph - N/A   Clear
11:54 AM 62.6 °F - 30.2 °F 30% 29.81 in 10.0 mi South 4.6 mph - N/A   Clear
12:13 PM 62.6 °F - 26.6 °F 26% 29.80 in 10.0 mi Calm Calm - N/A   Clear
12:33 PM 62.6 °F - 28.4 °F 27% 29.80 in 10.0 mi Calm Calm - N/A   Clear
12:54 PM 64.4 °F - 26.6 °F 24% 29.80 in 10.0 mi Calm Calm - N/A   Clear
1:14 PM 64.4 °F - 26.6 °F 24% 29.79 in 10.0 mi Calm Calm - N/A   Clear
1:33 PM 66.2 °F - 28.4 °F 24% 29.79 in 10.0 mi South 4.6 mph - N/A   Clear
1:53 PM 66.2 °F - 28.4 °F 24% 29.78 in 10.0 mi SW 4.6 mph - N/A   Clear
2:13 PM 66.2 °F - 26.6 °F 23% 29.78 in 10.0 mi Calm Calm - N/A   Clear
2:33 PM 68.0 °F - 26.6 °F 21% 29.78 in 10.0 mi East 3.5 mph - N/A   Clear
2:53 PM 69.8 °F - 26.6 °F 20% 29.78 in 10.0 mi South 4.6 mph - N/A   Clear
3:13 PM 69.8 °F - 26.6 °F 20% 29.77 in 10.0 mi SSW 6.9 mph - N/A   Clear
3:33 PM 69.8 °F - 26.6 °F 20% 29.77 in 10.0 mi NNE 3.5 mph - N/A   Clear
3:53 PM 69.8 °F - 26.6 °F 20% 29.77 in 10.0 mi South 6.9 mph - N/A   Clear
4:14 PM 69.8 °F - 26.6 °F 20% 29.76 in 10.0 mi Calm Calm - N/A   Clear
4:33 PM 69.8 °F - 26.6 °F 20% 29.76 in 10.0 mi South 3.5 mph - N/A   Clear
4:53 PM 69.8 °F - 24.8 °F 18% 29.76 in 10.0 mi SSE 6.9 mph - N/A   Clear
5:13 PM 71.6 °F - 26.6 °F 19% 29.76 in 10.0 mi South 9.2 mph - N/A   Clear
5:34 PM 71.6 °F - 26.6 °F 19% 29.76 in 10.0 mi South 6.9 mph - N/A   Clear
5:54 PM 69.8 °F - 24.8 °F 18% 29.76 in 10.0 mi SE 5.8 mph - N/A   Clear
6:13 PM 69.8 °F - 24.8 °F 18% 29.76 in 10.0 mi South 5.8 mph - N/A   Clear
6:34 PM 69.8 °F - 23.0 °F 17% 29.77 in 10.0 mi South 6.9 mph - N/A   Clear
6:54 PM 68.0 °F - 23.0 °F 18% 29.77 in 10.0 mi SSE 4.6 mph - N/A   Clear
7:14 PM 66.2 °F - 21.2 °F 18% 29.77 in 10.0 mi SSE 6.9 mph - N/A   Clear
7:33 PM 66.2 °F - 24.8 °F 21% 29.78 in 10.0 mi SE 3.5 mph - N/A   Clear
7:54 PM 64.4 °F - 26.6 °F 24% 29.78 in 10.0 mi Calm Calm - N/A   Clear
8:13 PM 60.8 °F - 26.6 °F 27% 29.78 in 10.0 mi Calm Calm - N/A   Clear
8:33 PM 60.8 °F - 24.8 °F 25% 29.78 in 10.0 mi Calm Calm - N/A   Clear
8:54 PM 55.4 °F - 24.8 °F 31% 29.79 in 10.0 mi Calm Calm - N/A   Clear
9:13 PM 53.6 °F - 26.6 °F 35% 29.80 in 10.0 mi Calm Calm - N/A   Clear
9:33 PM 51.8 °F - 28.4 °F 41% 29.81 in 10.0 mi Calm Calm - N/A   Clear
9:54 PM 50.0 °F - 30.2 °F 47% 29.82 in 10.0 mi Calm Calm - N/A   Clear
10:13 PM 50.0 °F - 26.6 °F 40% 29.82 in 10.0 mi ESE 3.5 mph - N/A   Clear
10:34 PM 46.4 °F 45.2 °F 30.2 °F 53% 29.82 in 10.0 mi East 3.5 mph - N/A   Clear
10:53 PM 48.2 °F - 30.2 °F 50% 29.82 in 10.0 mi Calm Calm - N/A   Clear
11:14 PM 46.4 °F - 30.2 °F 53% 29.83 in 10.0 mi Calm Calm - N/A   Clear
11:33 PM 51.8 °F - 24.8 °F 35% 29.83 in 10.0 mi ESE 3.5 mph - N/A   Clear
11:53 PM 50.0 °F - 26.6 °F 40% 29.83 in 10.0 mi ESE 3.5 mph - N/A   Clear